createdAt,value
2019-05-02T00:01:48.825Z,99.90
2019-05-02T00:04:21.269Z,99.90
2019-05-02T00:07:14.394Z,99.90
2019-05-02T00:09:48.419Z,99.90
2019-05-02T00:12:18.526Z,99.90
2019-05-02T00:14:48.484Z,99.90
2019-05-02T00:17:20.364Z,99.90
2019-05-02T00:19:51.262Z,99.90
2019-05-02T00:22:20.767Z,99.90
2019-05-02T00:24:50.734Z,99.90
2019-05-02T00:27:20.677Z,99.90
2019-05-02T00:29:53.751Z,99.90
2019-05-02T00:32:22.473Z,99.90
2019-05-02T00:34:53.155Z,99.90
2019-05-02T00:37:24.719Z,99.90
2019-05-02T00:39:54.099Z,99.90
2019-05-02T00:42:26.816Z,99.90
2019-05-02T00:44:56.375Z,99.90
2019-05-02T00:47:50.581Z,99.90
2019-05-02T00:50:21.237Z,99.90
2019-05-02T00:52:52.294Z,99.90
2019-05-02T00:55:22.223Z,99.90
2019-05-02T00:57:55.608Z,99.90
2019-05-02T01:00:25.372Z,99.90
2019-05-02T01:02:58.707Z,99.90
2019-05-02T01:05:33.890Z,99.90
2019-05-02T01:08:04.280Z,99.90
2019-05-02T01:10:34.010Z,99.90
2019-05-02T01:13:06.888Z,99.90
2019-05-02T01:15:39.183Z,99.90
2019-05-02T01:18:09.988Z,99.90
2019-05-02T01:20:41.221Z,99.90
2019-05-02T01:23:10.744Z,99.90
2019-05-02T01:25:40.682Z,99.90
2019-05-02T01:28:38.092Z,99.90
2019-05-02T01:31:41.594Z,99.90
2019-05-02T01:34:30.076Z,99.90
2019-05-02T01:37:04.821Z,99.90
2019-05-02T01:39:37.807Z,99.90
2019-05-02T01:42:06.057Z,99.90
2019-05-02T01:44:36.485Z,99.90
2019-05-02T01:47:07.099Z,99.90
2019-05-02T01:49:36.666Z,99.90
2019-05-02T01:52:06.336Z,99.90
2019-05-02T01:54:35.896Z,99.90
2019-05-02T01:57:08.746Z,99.90
2019-05-02T01:59:36.800Z,99.90
2019-05-02T02:02:06.732Z,99.90
2019-05-02T02:04:36.560Z,99.90
2019-05-02T02:07:06.371Z,99.90
2019-05-02T02:09:38.850Z,99.90
2019-05-02T02:12:12.593Z,99.90
2019-05-02T02:14:42.182Z,99.90
2019-05-02T02:17:15.462Z,99.90
2019-05-02T02:19:49.612Z,99.90
2019-05-02T02:22:39.260Z,99.90
2019-05-02T02:25:25.310Z,99.90
2019-05-02T02:27:59.658Z,99.90
2019-05-02T02:30:29.309Z,99.90
2019-05-02T02:33:07.752Z,99.90
2019-05-02T02:35:35.331Z,99.90
2019-05-02T02:38:04.512Z,99.90
2019-05-02T02:40:35.706Z,99.90
2019-05-02T02:43:29.901Z,99.90
2019-05-02T02:45:51.964Z,99.90
2019-05-02T02:48:22.191Z,99.90
2019-05-02T02:50:52.082Z,99.90
2019-05-02T02:53:30.313Z,99.90
2019-05-02T02:56:03.794Z,99.90
2019-05-02T02:58:44.505Z,99.90
2019-05-02T03:01:05.827Z,99.90
2019-05-02T03:03:35.865Z,99.90
2019-05-02T03:06:08.051Z,99.90
2019-05-02T03:08:44.535Z,99.90
2019-05-02T03:11:09.659Z,99.90
2019-05-02T03:14:07.170Z,99.90
2019-05-02T03:16:32.495Z,99.90
2019-05-02T03:19:02.165Z,99.90
2019-05-02T03:21:31.784Z,99.90
2019-05-02T03:24:05.768Z,99.90
2019-05-02T03:26:35.679Z,99.90
2019-05-02T03:29:05.684Z,99.90
2019-05-02T03:31:35.224Z,99.90
2019-05-02T03:34:05.431Z,99.90
2019-05-02T03:36:37.228Z,99.90
2019-05-02T03:39:14.591Z,99.90
2019-05-02T03:41:39.088Z,99.90
2019-05-02T03:44:11.574Z,99.90
2019-05-02T03:46:40.287Z,99.90
2019-05-02T03:49:11.042Z,99.90
2019-05-02T03:51:40.644Z,99.90
2019-05-02T03:54:10.640Z,99.90
2019-05-02T03:56:44.775Z,99.90
2019-05-02T03:59:11.902Z,99.90
2019-05-02T04:01:44.208Z,99.90
2019-05-02T04:04:19.900Z,99.90
2019-05-02T04:06:45.079Z,99.90
2019-05-02T04:09:39.057Z,99.90
2019-05-02T04:12:11.811Z,99.90
2019-05-02T04:14:38.925Z,99.90
2019-05-02T04:17:10.809Z,99.90
2019-05-02T04:19:41.357Z,99.90
2019-05-02T04:22:12.240Z,99.90
2019-05-02T04:24:47.843Z,99.90
2019-05-02T04:27:14.123Z,99.90
2019-05-02T04:29:43.751Z,99.90
2019-05-02T04:32:14.513Z,99.90
2019-05-02T04:34:48.858Z,99.90
2019-05-02T04:37:15.946Z,99.90
2019-05-02T04:39:48.717Z,99.90
2019-05-02T04:42:22.146Z,99.90
2019-05-02T04:45:12.194Z,99.90
2019-05-02T04:47:21.866Z,99.90
2019-05-02T04:49:52.081Z,99.90
2019-05-02T04:52:21.839Z,99.90
2019-05-02T04:54:51.550Z,99.90
2019-05-02T04:57:27.197Z,99.90
2019-05-02T05:00:02.552Z,99.90
2019-05-02T05:02:34.269Z,99.90
2019-05-02T05:04:55.264Z,99.90
2019-05-02T05:07:24.805Z,99.90
2019-05-02T05:09:58.360Z,99.90
2019-05-02T05:12:32.394Z,99.90
2019-05-02T05:15:00.457Z,99.90
2019-05-02T05:17:32.945Z,99.90
2019-05-02T05:20:10.716Z,99.90
2019-05-02T05:22:36.460Z,99.90
2019-05-02T05:25:12.386Z,99.90
2019-05-02T05:27:42.849Z,99.90
2019-05-02T05:30:15.631Z,99.90
2019-05-02T05:32:43.838Z,99.90
2019-05-02T05:35:13.686Z,99.90
2019-05-02T05:37:48.330Z,99.90
2019-05-02T05:43:12.141Z,99.90
2019-05-02T05:45:48.786Z,99.90
2019-05-02T05:48:08.282Z,99.90
2019-05-02T05:50:41.389Z,99.90
2019-05-02T05:53:12.409Z,99.90
2019-05-02T05:55:40.111Z,99.90
2019-05-02T05:58:15.202Z,99.90
2019-05-02T06:00:41.094Z,99.90
2019-05-02T06:03:14.047Z,99.90
2019-05-02T06:05:42.634Z,99.90
2019-05-02T06:08:13.849Z,99.90
2019-05-02T06:10:43.933Z,99.90
2019-05-02T06:13:14.623Z,99.90
2019-05-02T06:15:45.943Z,99.90
2019-05-02T06:18:15.308Z,99.90
2019-05-02T06:20:45.060Z,99.90
2019-05-02T06:23:14.884Z,99.90
2019-05-02T06:25:44.422Z,99.90
2019-05-02T06:28:14.011Z,99.90
2019-05-02T06:30:43.644Z,99.90
2019-05-02T06:33:13.385Z,99.90
2019-05-02T06:35:42.944Z,99.90
2019-05-02T06:38:13.518Z,99.90
2019-05-02T06:40:44.722Z,99.90
2019-05-02T06:43:14.234Z,99.90
2019-05-02T06:45:43.717Z,99.90
2019-05-02T06:48:17.141Z,99.90
2019-05-02T06:50:44.394Z,99.90
2019-05-02T06:53:13.902Z,99.90
2019-05-02T06:55:43.382Z,99.90
2019-05-02T06:58:12.828Z,99.90
2019-05-02T07:00:56.863Z,99.90
2019-05-02T07:03:13.487Z,99.90
2019-05-02T07:05:42.978Z,99.90
2019-05-02T07:08:14.033Z,99.90
2019-05-02T07:10:45.117Z,99.90
2019-05-02T07:13:15.418Z,99.90
2019-05-02T07:16:10.303Z,99.90
2019-05-02T07:18:47.626Z,99.90
2019-05-02T07:21:23.238Z,99.90
2019-05-02T07:23:48.642Z,99.90
2019-05-02T07:26:21.096Z,99.90
2019-05-02T07:28:50.176Z,99.90
2019-05-02T07:31:20.065Z,99.70
2019-05-02T07:33:49.666Z,99.90
2019-05-02T07:36:19.297Z,99.90
2019-05-02T07:38:48.947Z,99.90
2019-05-02T07:41:24.274Z,99.90
2019-05-02T07:43:52.005Z,99.40
2019-05-02T07:46:22.583Z,98.60
2019-05-02T07:48:54.558Z,98.40
2019-05-02T07:51:23.563Z,98.80
2019-05-02T07:53:55.558Z,99.10
2019-05-02T07:56:24.926Z,98.60
2019-05-02T07:58:54.625Z,98.80
2019-05-02T08:01:24.097Z,98.50
2019-05-02T08:03:53.835Z,98.90
2019-05-02T08:06:34.606Z,98.20
2019-05-02T08:08:54.574Z,98.60
2019-05-02T08:11:24.295Z,97.80
2019-05-02T08:14:00.342Z,98.00
2019-05-02T08:16:28.711Z,98.10
2019-05-02T08:19:01.386Z,96.60
2019-05-02T08:21:32.602Z,95.30
2019-05-02T08:24:03.707Z,95.20
2019-05-02T08:26:53.333Z,95.70
2019-05-02T08:29:23.326Z,95.50
2019-05-02T08:31:53.100Z,95.70
2019-05-02T08:34:30.102Z,95.00
2019-05-02T08:37:03.449Z,94.20
2019-05-02T08:39:34.002Z,94.30
2019-05-02T08:42:04.002Z,93.80
2019-05-02T08:44:33.904Z,93.00
2019-05-02T08:47:03.513Z,92.80
2019-05-02T08:49:33.226Z,91.90
2019-05-02T08:52:02.948Z,91.20
2019-05-02T08:54:32.933Z,89.90
2019-05-02T08:57:03.515Z,89.90
2019-05-02T08:59:33.148Z,88.50
2019-05-02T09:02:02.612Z,86.70
2019-05-02T09:04:32.138Z,86.80
2019-05-02T09:07:01.741Z,83.90
2019-05-02T09:09:31.318Z,82.80
2019-05-02T09:12:09.746Z,85.10
2019-05-02T09:14:33.782Z,83.70
2019-05-02T09:17:08.618Z,82.60
2019-05-02T09:19:34.992Z,81.70
2019-05-02T09:22:07.501Z,81.60
2019-05-02T09:24:36.324Z,80.70
2019-05-02T09:27:05.850Z,80.60
2019-05-02T09:29:37.342Z,79.70
2019-05-02T09:32:06.796Z,79.60
2019-05-02T09:34:36.309Z,78.60
2019-05-02T09:37:08.546Z,76.70
2019-05-02T09:39:41.534Z,77.30
2019-05-02T09:42:12.220Z,74.80
2019-05-02T09:44:42.606Z,75.00
2019-05-02T09:47:22.284Z,72.20
2019-05-02T09:50:08.178Z,73.30
2019-05-02T09:52:41.005Z,73.60
2019-05-02T09:55:12.186Z,73.80
2019-05-02T09:57:42.771Z,73.40
2019-05-02T10:00:26.680Z,73.30
2019-05-02T10:02:57.833Z,74.50
2019-05-02T10:05:27.678Z,73.10
2019-05-02T10:07:57.523Z,72.50
2019-05-02T10:10:32.399Z,70.90
2019-05-02T10:13:02.810Z,71.30
2019-05-02T10:15:32.819Z,73.20
2019-05-02T10:18:11.143Z,71.90
2019-05-02T10:20:36.518Z,71.70
2019-05-02T10:23:06.704Z,70.10
2019-05-02T10:25:38.862Z,70.60
2019-05-02T10:28:10.291Z,70.00
2019-05-02T10:30:47.291Z,68.40
2019-05-02T10:33:15.976Z,68.40
2019-05-02T10:35:47.026Z,65.80
2019-05-02T10:38:19.374Z,66.80
2019-05-02T10:40:48.395Z,65.10
2019-05-02T10:43:22.271Z,63.50
2019-05-02T10:45:57.417Z,64.60
2019-05-02T10:48:28.743Z,68.30
2019-05-02T10:51:17.006Z,67.50
2019-05-02T10:53:47.142Z,66.00
2019-05-02T10:56:17.764Z,65.50
2019-05-02T10:58:47.317Z,68.90
2019-05-02T11:01:18.223Z,69.40
2019-05-02T11:03:48.685Z,69.80
2019-05-02T11:06:22.099Z,70.10
2019-05-02T11:08:52.472Z,69.00
2019-05-02T11:11:22.854Z,68.80
2019-05-02T11:14:03.959Z,67.90
2019-05-02T11:16:49.896Z,66.60
2019-05-02T11:19:38.413Z,67.90
2019-05-02T11:22:08.023Z,68.90
2019-05-02T11:24:38.952Z,67.10
2019-05-02T11:27:08.352Z,66.20
2019-05-02T11:29:38.001Z,66.30
2019-05-02T11:32:07.603Z,63.70
2019-05-02T11:34:37.231Z,63.00
2019-05-02T11:37:06.711Z,60.70
2019-05-02T11:39:44.976Z,61.10
2019-05-02T11:42:07.489Z,61.10
2019-05-02T11:44:38.217Z,61.00
2019-05-02T11:47:07.589Z,60.70
2019-05-02T11:49:37.814Z,61.10
2019-05-02T11:52:09.549Z,59.30
2019-05-02T11:54:39.177Z,59.30
2019-05-02T11:57:11.672Z,59.90
2019-05-02T11:59:42.513Z,59.50
2019-05-02T12:02:31.790Z,58.80
2019-05-02T12:05:01.956Z,60.30
2019-05-02T12:07:32.453Z,63.00
2019-05-02T12:10:04.513Z,63.90
2019-05-02T12:12:36.327Z,64.30
2019-05-02T12:15:04.307Z,66.60
2019-05-02T12:17:33.671Z,66.00
2019-05-02T12:20:03.087Z,64.10
2019-05-02T12:22:32.634Z,63.30
2019-05-02T12:25:03.001Z,63.00
2019-05-02T12:27:32.493Z,60.60
2019-05-02T12:30:03.309Z,59.50
2019-05-02T12:32:33.417Z,60.80
2019-05-02T12:35:02.970Z,62.40
2019-05-02T12:37:32.739Z,64.20
2019-05-02T12:40:02.798Z,65.20
2019-05-02T12:42:33.298Z,66.00
2019-05-02T12:45:03.088Z,65.10
2019-05-02T12:47:32.561Z,65.90
2019-05-02T12:50:03.112Z,66.90
2019-05-02T12:52:32.799Z,68.20
2019-05-02T12:55:02.328Z,63.90
2019-05-02T12:57:32.170Z,61.00
2019-05-02T13:00:02.148Z,60.30
2019-05-02T13:02:52.626Z,61.50
2019-05-02T13:05:22.306Z,61.80
2019-05-02T13:07:55.401Z,60.90
2019-05-02T13:10:32.732Z,61.70
2019-05-02T13:13:02.795Z,62.30
2019-05-02T13:15:32.951Z,59.40
2019-05-02T13:18:03.011Z,58.10
2019-05-02T13:20:34.722Z,58.50
2019-05-02T13:23:27.315Z,58.50
2019-05-02T13:25:55.688Z,59.10
2019-05-02T13:28:25.710Z,58.50
2019-05-02T13:31:14.276Z,56.80
2019-05-02T13:33:52.333Z,56.10
2019-05-02T13:36:42.912Z,56.00
2019-05-02T13:39:21.992Z,56.70
2019-05-02T13:41:52.246Z,58.20
2019-05-02T13:44:24.978Z,57.80
2019-05-02T13:46:54.448Z,61.40
2019-05-02T13:49:23.830Z,61.30
2019-05-02T13:51:53.201Z,64.10
2019-05-02T13:54:22.745Z,66.30
2019-05-02T13:56:53.020Z,66.30
2019-05-02T13:59:22.558Z,67.40
2019-05-02T14:01:53.667Z,69.20
2019-05-02T14:04:23.592Z,68.40
2019-05-02T14:06:53.144Z,65.70
2019-05-02T14:09:39.956Z,63.30
2019-05-02T14:12:37.144Z,64.00
2019-05-02T14:15:07.741Z,66.60
2019-05-02T14:17:37.108Z,68.40
2019-05-02T14:20:10.427Z,69.10
2019-05-02T14:22:37.940Z,70.00
2019-05-02T14:25:07.849Z,71.20
2019-05-02T14:27:37.348Z,71.60
2019-05-02T14:30:08.217Z,72.40
2019-05-02T14:32:37.631Z,71.60
2019-05-02T14:35:24.148Z,71.10
2019-05-02T14:38:13.100Z,70.50
2019-05-02T14:41:03.008Z,70.70
2019-05-02T14:44:09.206Z,71.80
2019-05-02T14:46:39.614Z,70.60
2019-05-02T14:49:09.303Z,70.90
2019-05-02T14:51:39.225Z,69.40
2019-05-02T14:54:08.809Z,70.10
2019-05-02T14:56:49.275Z,71.10
2019-05-02T14:59:19.976Z,68.80
2019-05-02T15:01:57.655Z,67.00
2019-05-02T15:04:24.175Z,67.00
2019-05-02T15:06:53.622Z,67.60
2019-05-02T15:09:26.837Z,68.80
2019-05-02T15:12:02.388Z,69.70
2019-05-02T15:14:33.017Z,69.90
2019-05-02T15:17:02.952Z,70.70
2019-05-02T15:19:33.139Z,69.90
2019-05-02T15:22:02.776Z,70.40
2019-05-02T15:24:37.527Z,72.00
2019-05-02T15:27:11.332Z,71.90
2019-05-02T15:29:34.444Z,72.00
2019-05-02T15:32:44.979Z,72.10
2019-05-02T15:35:31.794Z,71.70
2019-05-02T15:38:06.394Z,72.10
2019-05-02T15:40:42.973Z,72.40
2019-05-02T15:43:09.246Z,71.60
2019-05-02T15:45:36.773Z,72.20
2019-05-02T15:48:08.789Z,72.40
2019-05-02T15:50:48.772Z,71.90
2019-05-02T15:53:15.359Z,72.20
2019-05-02T15:55:44.730Z,71.70
2019-05-02T15:58:23.698Z,72.90
2019-05-02T16:01:01.676Z,73.80
2019-05-02T16:03:45.877Z,73.70
2019-05-02T16:06:16.493Z,73.90
2019-05-02T16:08:47.334Z,74.50
2019-05-02T16:11:18.228Z,74.90
2019-05-02T16:13:52.416Z,75.10
2019-05-02T16:16:21.915Z,75.80
2019-05-02T16:18:52.510Z,75.80
2019-05-02T16:21:30.115Z,75.80
2019-05-02T16:24:17.086Z,75.30
2019-05-02T16:26:46.945Z,75.80
2019-05-02T16:29:23.270Z,76.50
2019-05-02T16:31:59.774Z,76.60
2019-05-02T16:34:31.737Z,76.40
2019-05-02T16:37:13.639Z,76.40
2019-05-02T16:39:49.306Z,76.20
2019-05-02T16:42:13.338Z,75.80
2019-05-02T16:44:43.060Z,76.10
2019-05-02T16:47:13.916Z,76.10
2019-05-02T16:49:43.542Z,76.20
2019-05-02T16:52:16.002Z,77.10
2019-05-02T16:54:44.364Z,76.80
2019-05-02T16:57:17.286Z,76.60
2019-05-02T16:59:44.794Z,77.10
2019-05-02T17:02:14.360Z,77.20
2019-05-02T17:04:43.752Z,77.40
2019-05-02T17:07:17.972Z,76.80
2019-05-02T17:10:14.629Z,77.30
2019-05-02T17:12:40.224Z,77.60
2019-05-02T17:15:31.177Z,77.50
2019-05-02T17:17:58.338Z,77.00
2019-05-02T17:20:27.673Z,77.10
2019-05-02T17:23:01.925Z,77.00
2019-05-02T17:25:28.273Z,77.70
2019-05-02T17:28:02.392Z,77.70
2019-05-02T17:30:33.337Z,78.10
2019-05-02T17:33:01.771Z,77.90
2019-05-02T17:35:32.597Z,77.90
2019-05-02T17:38:02.528Z,78.70
2019-05-02T17:40:32.105Z,78.10
2019-05-02T17:43:06.872Z,79.40
2019-05-02T17:45:38.625Z,79.80
2019-05-02T17:48:15.873Z,79.80
2019-05-02T17:50:56.083Z,80.80
2019-05-02T17:53:24.635Z,81.20
2019-05-02T17:55:53.969Z,81.70
2019-05-02T17:58:23.324Z,82.40
2019-05-02T18:00:56.907Z,83.10
2019-05-02T18:03:31.215Z,83.80
2019-05-02T18:05:56.251Z,84.80
2019-05-02T18:08:27.028Z,85.00
2019-05-02T18:11:00.070Z,85.50
2019-05-02T18:13:29.270Z,86.20
2019-05-02T18:15:59.122Z,86.90
2019-05-02T18:18:28.536Z,87.90
2019-05-02T18:20:58.006Z,87.80
2019-05-02T18:23:27.764Z,88.70
2019-05-02T18:26:01.513Z,89.20
2019-05-02T18:28:28.426Z,89.90
2019-05-02T18:31:04.124Z,89.60
2019-05-02T18:33:29.012Z,90.20
2019-05-02T18:35:58.509Z,90.30
2019-05-02T18:38:27.874Z,90.70
2019-05-02T18:41:00.380Z,90.90
2019-05-02T18:43:28.567Z,91.10
2019-05-02T18:46:02.887Z,91.20
2019-05-02T18:48:29.178Z,91.30
2019-05-02T18:50:58.591Z,91.70
2019-05-02T18:53:28.138Z,91.90
2019-05-02T18:56:01.673Z,92.00
2019-05-02T18:58:28.815Z,92.30
2019-05-02T19:00:58.287Z,92.30
2019-05-02T19:03:27.775Z,92.60
2019-05-02T19:05:58.473Z,93.10
2019-05-02T19:08:32.228Z,93.50
2019-05-02T19:11:08.934Z,94.50
2019-05-02T19:13:32.924Z,96.40
2019-05-02T19:16:03.919Z,97.40
2019-05-02T19:18:33.365Z,98.50
2019-05-02T19:21:03.698Z,99.90
2019-05-02T19:23:34.316Z,99.90
2019-05-02T19:26:09.836Z,99.90
2019-05-02T19:29:03.594Z,99.90
2019-05-02T19:31:44.310Z,99.90
2019-05-02T19:34:09.187Z,99.90
2019-05-02T19:36:41.119Z,99.90
2019-05-02T19:39:10.437Z,99.90
2019-05-02T19:41:44.007Z,99.90
2019-05-02T19:44:11.200Z,99.90
2019-05-02T19:46:42.272Z,99.90
2019-05-02T19:49:16.010Z,99.90
2019-05-02T19:51:44.024Z,99.90
2019-05-02T19:54:13.596Z,99.90
2019-05-02T19:56:47.767Z,99.90
2019-05-02T19:59:24.502Z,99.90
2019-05-02T20:01:49.568Z,99.90
2019-05-02T20:04:19.056Z,99.90
2019-05-02T20:06:48.517Z,99.90
2019-05-02T20:09:18.018Z,99.90
2019-05-02T20:11:47.757Z,99.90
2019-05-02T20:14:17.289Z,99.90
2019-05-02T20:16:52.915Z,99.90
2019-05-02T20:19:26.795Z,99.90
2019-05-02T20:22:08.364Z,99.90
2019-05-02T20:24:55.317Z,99.90
2019-05-02T20:27:22.451Z,99.90
2019-05-02T20:29:52.242Z,99.90
2019-05-02T20:32:22.201Z,99.90
2019-05-02T20:34:51.652Z,99.90
2019-05-02T20:37:22.146Z,99.90
2019-05-02T20:39:51.674Z,99.90
2019-05-02T20:42:21.181Z,99.90
2019-05-02T20:44:52.643Z,99.90
2019-05-02T20:47:24.207Z,99.90
2019-05-02T20:49:53.842Z,99.90
2019-05-02T20:52:23.249Z,99.90
2019-05-02T20:54:52.939Z,99.90
2019-05-02T20:57:22.390Z,99.90
2019-05-02T20:59:52.576Z,99.90
2019-05-02T21:02:22.251Z,99.90
2019-05-02T21:04:52.227Z,99.90
2019-05-02T21:07:49.935Z,99.90
2019-05-02T21:10:41.630Z,99.90
2019-05-02T21:13:12.680Z,99.90
2019-05-02T21:15:42.212Z,99.90
2019-05-02T21:18:11.755Z,99.90
2019-05-02T21:20:41.807Z,99.90
2019-05-02T21:23:12.119Z,99.90
2019-05-02T21:25:41.762Z,99.90
2019-05-02T21:28:11.957Z,99.90
2019-05-02T21:30:41.673Z,99.90
2019-05-02T21:33:32.591Z,99.90
2019-05-02T21:36:02.058Z,99.90
2019-05-02T21:38:31.988Z,99.90
2019-05-02T21:41:01.740Z,99.90
2019-05-02T21:43:31.704Z,99.90
2019-05-02T21:46:02.357Z,99.90
2019-05-02T21:48:32.707Z,99.90
2019-05-02T21:51:13.578Z,99.90
2019-05-02T21:54:14.046Z,99.90
2019-05-02T21:56:49.430Z,99.90
2019-05-02T21:59:18.850Z,99.90
2019-05-02T22:01:51.946Z,99.90
2019-05-02T22:04:22.464Z,99.90
2019-05-02T22:06:52.425Z,99.90
2019-05-02T22:09:23.091Z,99.90
2019-05-02T22:11:52.782Z,99.90
2019-05-02T22:14:22.600Z,99.90
2019-05-02T22:16:53.133Z,99.90
2019-05-02T22:19:22.724Z,99.90
2019-05-02T22:21:52.617Z,99.90
2019-05-02T22:24:22.113Z,99.90
2019-05-02T22:26:52.668Z,99.90
2019-05-02T22:29:22.240Z,99.90
2019-05-02T22:31:52.174Z,99.90
2019-05-02T22:34:22.907Z,99.90
2019-05-02T22:36:54.251Z,99.90
2019-05-02T22:39:52.380Z,99.90
2019-05-02T22:42:22.062Z,99.90
2019-05-02T22:44:51.468Z,99.90
2019-05-02T22:47:22.715Z,99.90
2019-05-02T22:49:52.132Z,99.90
2019-05-02T22:52:21.890Z,99.90
2019-05-02T22:54:52.304Z,99.90
2019-05-02T22:57:22.549Z,99.90
2019-05-02T22:59:52.114Z,99.90
2019-05-02T23:02:21.968Z,99.90
2019-05-02T23:04:52.641Z,99.90
2019-05-02T23:07:22.393Z,99.90
2019-05-02T23:09:52.784Z,99.90
2019-05-02T23:12:24.909Z,99.90
2019-05-02T23:14:53.558Z,99.90
2019-05-02T23:17:23.260Z,99.90
2019-05-02T23:19:52.888Z,99.90
2019-05-02T23:22:22.248Z,99.90
2019-05-02T23:25:16.373Z,99.90
2019-05-02T23:27:49.513Z,99.90
2019-05-02T23:30:22.549Z,99.90
2019-05-02T23:32:52.163Z,99.90
2019-05-02T23:35:21.575Z,99.90
2019-05-02T23:37:52.845Z,99.90
2019-05-02T23:40:22.185Z,99.90
2019-05-02T23:42:52.498Z,99.90
2019-05-02T23:45:22.546Z,99.90
2019-05-02T23:47:52.902Z,99.90
2019-05-02T23:50:22.858Z,99.90
2019-05-02T23:52:52.403Z,99.90
2019-05-02T23:55:22.862Z,99.90
2019-05-02T23:57:54.529Z,99.90
